Nedre Soppero, Sweden

4:42 AM CET on February 25, 2017 (GMT +0100)
Kiruna | | Change Station

Elev 1483 ft 67.82 °N, 20.33 °E | Updated 22 minutes ago

Clear
Clear
1 °F
Feels Like 1 °F
N
2
Wind Variable Wind from Variable

Today
High -- | Low -- °F
--% Chance of Precip.
Yesterday
High -- | Low -- °F
Precip. -- in
Pressure 29.18 in
Visibility 6.2 miles
Clouds
Dew Point -2 °F
Humidity 85%
Rainfall 0.00 in
Snow Depth Not available.
7:08 AM 4:24 PM
Waning Crescent, 3% visible
METAR ESNQ 250320Z AUTO VRB02KT 9999 NCD M17/M19 Q0988
Pressure 29.18 in
Visibility 6.2 miles
Clouds
Dew Point -2 °F
Humidity 85%
Rainfall 0.00 in
Snow Depth Not available.
7:08 AM 4:24 PM
Waning Crescent, 3% visible
METAR ESNQ 250320Z AUTO VRB02KT 9999 NCD M17/M19 Q0988

Get Your Daily Forecast Email!

Thanks for signing up!

Be on the lookout for a verification email in your inbox.

You'll start receiving the daily forecast at 8 AM.

×

10-Day Weather Forecast

×

Almanac

Astronomy

Feb. 25, 2017 Rise Set
Actual Time
Civil Twilight
Nautical Twilight
Astronomical Twilight
Moon
Length of Visible Light
Length of Day
Tomorrow will be .
, % of the Moon is Illuminated

Today's Extremes

Country Highs Country Lows

Community

WunderPhotos

Upload Photos

1,962,540 photos uploaded!

WunderBlog® & News

Nearby

Air Quality

  Air Quality AQ Index Pollutant
Not available.

Snow Depth

Station Depth Elevation

Earthquake Activity

City Distance Mag. Time & Date
Minimum magnitude displayed is 2.5.

Coastal Water Temperatures

Place Temperature

Stations

Nearby Weather Stations

Station Location Temp. Windchill Dew Point Humidity Wind Precip. Elev Updated Type